Time;durP1;ratioP1;P1;durP2;ratioP2;P2;SDS_P1;SDS_P2;PMS_P1;PMS_P2;Temp;Humidity;BMP_temperature;BMP_pressure;BME280_temperature;BME280_humidity;BME280_pressure;Samples;Min_cycle;Max_cycle;Signal;HPM_P1;HPM_P2
2023/03/25 00:01:02;;;;;;;12.23;11.32;;;;;;;;;;4995355;28;20039;-47
2023/03/25 00:03:30;;;;;;;12.18;11.48;;;;;;;;;;4992971;28;20096;-48
2023/03/25 00:05:56;;;;;;;10.88;10.23;;;;;;;;;;4995585;28;20050;-53
2023/03/25 00:08:23;;;;;;;11.10;10.40;;;;;;;;;;4995284;28;20486;-51
2023/03/25 00:10:57;;;;;;;10.45;9.85;;;;;;;;;;4996021;28;20713;-53
2023/03/25 00:13:23;;;;;;;10.15;9.55;;;;;;;;;;4994859;28;20038;-54
2023/03/25 00:15:52;;;;;;;11.07;10.38;;;;;;;;;;4995167;28;20129;-53
2023/03/25 00:18:21;;;;;;;10.93;10.27;;;;;;;;;;4994542;28;20088;-52
2023/03/25 00:20:53;;;;;;;10.40;9.80;;;;;;;;;;4996428;28;20451;-53
2023/03/25 00:23:20;;;;;;;10.27;9.68;;;;;;;;;;4996380;28;20388;-50
2023/03/25 00:25:46;;;;;;;10.07;9.48;;;;;;;;;;4995135;28;20371;-51
2023/03/25 00:28:12;;;;;;;10.02;9.43;;;;;;;;;;4993760;28;20034;-47
2023/03/25 00:30:38;;;;;;;11.15;10.45;;;;;;;;;;4995462;28;20209;-49
2023/03/25 00:33:04;;;;;;;11.32;10.63;;;;;;;;;;4994312;28;20116;-50
2023/03/25 00:35:29;;;;;;;11.30;10.60;;;;;;;;;;4999324;28;20606;-49
2023/03/25 00:38:01;;;;;;;10.88;10.20;;;;;;;;;;4994098;28;20056;-49
2023/03/25 00:40:29;;;;;;;11.75;11.05;;;;;;;;;;4993189;28;20542;-49
2023/03/25 00:42:55;;;;;;;10.30;9.70;;;;;;;;;;4992324;28;20046;-48
2023/03/25 00:45:21;;;;;;;10.90;10.20;;;;;;;;;;4990203;28;20042;-51
2023/03/25 00:47:47;;;;;;;11.07;10.38;;;;;;;;;;4993342;28;20057;-54
2023/03/25 00:50:13;;;;;;;10.48;9.88;;;;;;;;;;4995070;28;20575;-50
2023/03/25 00:52:40;;;;;;;10.48;9.88;;;;;;;;;;5009973;28;20030;-53
2023/03/25 00:55:07;;;;;;;10.27;9.68;;;;;;;;;;4994965;28;20091;-53
2023/03/25 00:57:32;;;;;;;11.02;10.32;;;;;;;;;;4993712;28;20038;-53
2023/03/25 00:59:58;;;;;;;10.52;9.93;;;;;;;;;;4994156;28;20034;-50
2023/03/25 01:02:23;;;;;;;11.20;10.50;;;;;;;;;;4992805;28;20117;-48
2023/03/25 01:04:49;;;;;;;10.60;10.00;;;;;;;;;;4992934;28;20041;-48
2023/03/25 01:07:19;;;;;;;10.70;10.00;;;;;;;;;;4994622;28;20033;-51
2023/03/25 01:09:46;;;;;;;10.38;9.77;;;;;;;;;;4993512;28;20242;-50
2023/03/25 01:12:12;;;;;;;9.80;9.20;;;;;;;;;;4994488;28;20125;-49
2023/03/25 01:14:38;;;;;;;9.57;8.98;;;;;;;;;;4993762;28;20033;-49
2023/03/25 01:17:04;;;;;;;11.35;10.65;;;;;;;;;;4993312;28;20448;-50
2023/03/25 01:19:30;;;;;;;9.70;9.10;;;;;;;;;;4993531;28;20034;-48
2023/03/25 01:21:55;;;;;;;9.63;9.02;;;;;;;;;;4995778;28;20129;-47
2023/03/25 01:24:21;;;;;;;9.68;9.07;;;;;;;;;;4991166;28;20535;-51
2023/03/25 01:26:46;;;;;;;13.75;10.35;;;;;;;;;;4993274;28;20575;-48
2023/03/25 01:29:16;;;;;;;9.65;9.05;;;;;;;;;;4994477;28;20153;-50
2023/03/25 01:31:42;;;;;;;9.60;9.00;;;;;;;;;;4994033;28;20022;-47
2023/03/25 01:34:08;;;;;;;9.48;8.88;;;;;;;;;;4997936;28;20493;-51
2023/03/25 01:36:36;;;;;;;12.02;10.25;;;;;;;;;;4997506;28;20034;-49
2023/03/25 01:39:04;;;;;;;10.88;10.18;;;;;;;;;;4995079;28;20152;-48
2023/03/25 01:41:30;;;;;;;10.40;9.80;;;;;;;;;;4991163;28;20039;-48
2023/03/25 01:44:28;;;;;;;10.65;9.82;;;;;;;;;;4994860;28;20137;-47
2023/03/25 01:46:56;;;;;;;10.77;10.10;;;;;;;;;;4990576;28;20149;-52
2023/03/25 01:49:28;;;;;;;10.85;10.23;;;;;;;;;;4991848;28;20141;-51
2023/03/25 01:51:58;;;;;;;10.35;9.75;;;;;;;;;;4991499;28;20235;-51
2023/03/25 01:54:26;;;;;;;10.40;9.80;;;;;;;;;;4990962;28;20034;-47
2023/03/25 01:56:51;;;;;;;10.45;9.85;;;;;;;;;;4991891;28;20034;-47
2023/03/25 01:59:20;;;;;;;9.85;9.25;;;;;;;;;;4990862;28;20045;-48
2023/03/25 02:01:45;;;;;;;10.32;9.73;;;;;;;;;;4992835;28;20033;-50
2023/03/25 02:04:14;;;;;;;10.80;10.18;;;;;;;;;;4992583;28;20641;-49
2023/03/25 02:06:44;;;;;;;11.10;10.20;;;;;;;;;;4990156;28;20042;-47
2023/03/25 02:09:11;;;;;;;10.82;9.82;;;;;;;;;;4990162;28;20038;-51
2023/03/25 02:11:37;;;;;;;9.90;9.30;;;;;;;;;;4988087;28;20026;-49
2023/03/25 02:14:06;;;;;;;10.43;9.82;;;;;;;;;;4994434;28;20558;-49
2023/03/25 02:16:41;;;;;;;10.02;9.43;;;;;;;;;;4991112;28;20049;-51
2023/03/25 02:19:09;;;;;;;10.07;9.48;;;;;;;;;;4994699;28;20044;-47
2023/03/25 02:21:53;;;;;;;9.77;9.18;;;;;;;;;;4992072;28;20485;-50
2023/03/25 02:24:35;;;;;;;10.20;9.60;;;;;;;;;;4992540;28;20048;-47
2023/03/25 02:27:27;;;;;;;10.38;9.75;;;;;;;;;;4991862;28;20030;-47
2023/03/25 02:30:07;;;;;;;10.00;9.40;;;;;;;;;;4994080;28;20046;-48
2023/03/25 02:33:28;;;;;;;10.63;9.98;;;;;;;;;;4992781;28;20110;-47
2023/03/25 02:36:18;;;;;;;10.25;9.65;;;;;;;;;;4990707;28;20057;-47
2023/03/25 02:38:54;;;;;;;10.25;9.65;;;;;;;;;;4991396;28;20042;-47
2023/03/25 02:41:36;;;;;;;10.60;9.90;;;;;;;;;;4957399;28;1062455;-47
2023/03/25 02:44:10;;;;;;;10.20;9.60;;;;;;;;;;4991929;28;20061;-50
2023/03/25 02:46:42;;;;;;;9.77;9.18;;;;;;;;;;4994311;28;20559;-49
2023/03/25 02:49:12;;;;;;;9.85;9.15;;;;;;;;;;4993593;28;20042;-49
2023/03/25 02:51:48;;;;;;;9.50;8.90;;;;;;;;;;4989182;28;20076;-49
2023/03/25 02:54:16;;;;;;;9.25;8.65;;;;;;;;;;4990131;28;20033;-49
2023/03/25 02:56:46;;;;;;;10.52;9.93;;;;;;;;;;4990455;28;20069;-52
2023/03/25 02:59:13;;;;;;;9.77;9.18;;;;;;;;;;4991230;28;20631;-49
2023/03/25 03:01:39;;;;;;;10.23;9.63;;;;;;;;;;4996266;28;20049;-52
2023/03/25 03:04:05;;;;;;;10.02;9.43;;;;;;;;;;4995649;28;20100;-50
2023/03/25 03:06:36;;;;;;;9.70;9.10;;;;;;;;;;4996056;28;20030;-49
2023/03/25 03:09:24;;;;;;;9.90;9.20;;;;;;;;;;4994915;28;20042;-48
2023/03/25 03:11:58;;;;;;;9.40;8.80;;;;;;;;;;4995867;28;20040;-48
2023/03/25 03:14:33;;;;;;;9.43;8.82;;;;;;;;;;4994541;28;20046;-52
2023/03/25 03:17:24;;;;;;;9.73;9.13;;;;;;;;;;4994538;28;20038;-52
2023/03/25 03:19:58;;;;;;;10.13;9.52;;;;;;;;;;4994342;28;20096;-51
2023/03/25 03:22:36;;;;;;;9.60;9.00;;;;;;;;;;5008822;28;20050;-52
2023/03/25 03:25:15;;;;;;;10.52;9.93;;;;;;;;;;4996041;28;20799;-47
2023/03/25 03:28:04;;;;;;;9.85;9.25;;;;;;;;;;4995176;28;20128;-48
2023/03/25 03:30:38;;;;;;;9.90;9.30;;;;;;;;;;4996930;28;20502;-47
2023/03/25 03:33:24;;;;;;;9.82;9.23;;;;;;;;;;4997738;28;20048;-49
2023/03/25 03:36:03;;;;;;;9.60;9.00;;;;;;;;;;4996514;28;20038;-49
2023/03/25 03:38:40;;;;;;;11.23;10.05;;;;;;;;;;4996957;28;20046;-48
2023/03/25 03:41:09;;;;;;;9.57;8.98;;;;;;;;;;4994819;28;20030;-48
2023/03/25 03:43:44;;;;;;;9.30;8.70;;;;;;;;;;4991878;28;20065;-55
2023/03/25 03:46:36;;;;;;;10.15;9.55;;;;;;;;;;4996241;28;20349;-47
2023/03/25 03:49:07;;;;;;;9.13;8.52;;;;;;;;;;4994110;28;20034;-48
2023/03/25 03:51:40;;;;;;;10.15;9.55;;;;;;;;;;4994897;28;20048;-49
2023/03/25 03:54:17;;;;;;;9.27;8.68;;;;;;;;;;4996215;28;20045;-52
2023/03/25 03:56:48;;;;;;;10.07;9.48;;;;;;;;;;4996406;28;20387;-51
2023/03/25 03:59:22;;;;;;;9.43;8.82;;;;;;;;;;4994701;28;20034;-47
2023/03/25 04:01:54;;;;;;;9.38;8.77;;;;;;;;;;4996251;28;20105;-50
2023/03/25 04:04:25;;;;;;;9.15;8.55;;;;;;;;;;4993223;28;20030;-51
2023/03/25 04:07:03;;;;;;;;;;;;;;;;;;4995606;28;20071;-51
2023/03/25 04:09:55;;;;;;;9.50;8.90;;;;;;;;;;4995239;28;20391;-50
2023/03/25 04:12:30;;;;;;;8.50;8.00;;;;;;;;;;4995126;28;20046;-51
2023/03/25 04:14:58;;;;;;;9.52;8.93;;;;;;;;;;4995843;28;20038;-49
2023/03/25 04:17:24;;;;;;;9.50;8.90;;;;;;;;;;4994231;28;20099;-47
2023/03/25 04:19:52;;;;;;;10.20;9.60;;;;;;;;;;4995752;28;20037;-51
2023/03/25 04:22:18;;;;;;;9.55;8.90;;;;;;;;;;4992529;28;20061;-50
2023/03/25 04:24:44;;;;;;;9.00;8.40;;;;;;;;;;4993679;28;20029;-48
2023/03/25 04:27:12;;;;;;;9.35;8.75;;;;;;;;;;4994423;28;20064;-51
2023/03/25 04:29:39;;;;;;;8.98;8.38;;;;;;;;;;5001141;28;20617;-49
2023/03/25 04:32:05;;;;;;;9.55;8.73;;;;;;;;;;4997202;28;20029;-52
2023/03/25 04:34:30;;;;;;;9.57;8.98;;;;;;;;;;5010721;28;20635;-52
2023/03/25 04:36:55;;;;;;;10.65;9.85;;;;;;;;;;4993457;28;20045;-50
2023/03/25 04:39:21;;;;;;;9.93;9.23;;;;;;;;;;4992482;28;20065;-50
2023/03/25 04:41:52;;;;;;;10.00;9.40;;;;;;;;;;4994276;28;20042;-49
2023/03/25 04:44:20;;;;;;;9.23;8.63;;;;;;;;;;4991837;28;20049;-49
2023/03/25 04:46:46;;;;;;;9.32;8.73;;;;;;;;;;4992120;28;20672;-51
2023/03/25 04:49:22;;;;;;;9.98;9.07;;;;;;;;;;4993247;28;20108;-48
2023/03/25 04:51:50;;;;;;;9.60;9.00;;;;;;;;;;5010109;28;20034;-50
2023/03/25 04:54:16;;;;;;;9.25;8.65;;;;;;;;;;4995030;28;20049;-49
2023/03/25 04:56:42;;;;;;;9.18;8.57;;;;;;;;;;4995369;28;20093;-50
2023/03/25 04:59:08;;;;;;;10.20;9.60;;;;;;;;;;4994368;28;20491;-50
2023/03/25 05:01:40;;;;;;;9.50;8.90;;;;;;;;;;4994396;28;20482;-51
2023/03/25 05:04:11;;;;;;;9.77;9.18;;;;;;;;;;4963790;28;20072;-51
2023/03/25 05:06:42;;;;;;;9.95;9.15;;;;;;;;;;4994986;28;20420;-48
2023/03/25 05:09:09;;;;;;;;;;;;;;;;;;4992451;28;20479;-52
2023/03/25 05:11:38;;;;;;;9.10;8.50;;;;;;;;;;4994225;28;19922;-49
2023/03/25 05:14:04;;;;;;;9.52;8.93;;;;;;;;;;4994278;28;20049;-53
2023/03/25 05:16:29;;;;;;;9.77;9.18;;;;;;;;;;4990706;28;20530;-49
2023/03/25 05:18:55;;;;;;;9.60;9.00;;;;;;;;;;4992038;28;20112;-50
2023/03/25 05:21:20;;;;;;;9.75;9.15;;;;;;;;;;4991124;28;20053;-51
2023/03/25 05:23:46;;;;;;;9.73;9.13;;;;;;;;;;4993308;28;20047;-52
2023/03/25 05:26:12;;;;;;;9.23;8.63;;;;;;;;;;4993061;28;20128;-53
2023/03/25 05:28:38;;;;;;;9.10;8.50;;;;;;;;;;4991912;28;20030;-49
2023/03/25 05:31:07;;;;;;;9.60;8.98;;;;;;;;;;4993443;28;20038;-54
2023/03/25 05:33:42;;;;;;;9.95;9.25;;;;;;;;;;4991680;28;20034;-55
2023/03/25 05:36:11;;;;;;;9.52;8.77;;;;;;;;;;4996009;28;20469;-52
2023/03/25 05:38:40;;;;;;;9.35;8.75;;;;;;;;;;4993399;28;20038;-49
2023/03/25 05:41:09;;;;;;;10.45;9.75;;;;;;;;;;4994478;28;20049;-50
2023/03/25 05:43:36;;;;;;;9.48;8.88;;;;;;;;;;4998255;28;20041;-48
2023/03/25 05:46:03;;;;;;;9.18;8.57;;;;;;;;;;4997674;28;20038;-51
2023/03/25 05:48:31;;;;;;;8.88;8.27;;;;;;;;;;4996157;28;20026;-51
2023/03/25 05:50:57;;;;;;;8.75;8.18;;;;;;;;;;4994621;28;20030;-51
2023/03/25 05:53:23;;;;;;;8.70;8.15;;;;;;;;;;4992479;28;20030;-54
2023/03/25 05:55:50;;;;;;;9.70;9.10;;;;;;;;;;4996665;28;20034;-51
2023/03/25 05:58:16;;;;;;;10.65;9.50;;;;;;;;;;4995336;28;20030;-51
2023/03/25 06:00:42;;;;;;;9.82;9.23;;;;;;;;;;4993433;28;20038;-55
2023/03/25 06:03:08;;;;;;;9.45;8.85;;;;;;;;;;4991931;28;20037;-49
2023/03/25 06:05:34;;;;;;;10.00;9.40;;;;;;;;;;4993380;28;20045;-52
2023/03/25 06:08:00;;;;;;;10.02;9.43;;;;;;;;;;4993794;28;20361;-49
2023/03/25 06:10:26;;;;;;;9.65;9.05;;;;;;;;;;4993028;28;20033;-49
2023/03/25 06:12:52;;;;;;;9.68;9.07;;;;;;;;;;4991395;28;20133;-55
2023/03/25 06:15:20;;;;;;;10.63;9.93;;;;;;;;;;4992597;28;20053;-54
2023/03/25 06:17:46;;;;;;;10.27;9.48;;;;;;;;;;4992648;28;20495;-52
2023/03/25 06:20:13;;;;;;;10.32;9.63;;;;;;;;;;4991712;28;20042;-50
2023/03/25 06:22:39;;;;;;;10.00;9.40;;;;;;;;;;4993620;28;20034;-51
2023/03/25 06:25:06;;;;;;;10.05;9.45;;;;;;;;;;4994170;28;20048;-55
2023/03/25 06:27:33;;;;;;;10.32;9.63;;;;;;;;;;4995035;28;20045;-54
2023/03/25 06:30:02;;;;;;;10.57;9.88;;;;;;;;;;4991138;28;20038;-56
2023/03/25 06:32:28;;;;;;;11.07;10.23;;;;;;;;;;4993516;28;20149;-55
2023/03/25 06:34:53;;;;;;;11.13;10.43;;;;;;;;;;4993867;28;21136;-55
2023/03/25 06:37:18;;;;;;;10.45;9.77;;;;;;;;;;5003263;28;20026;-55
2023/03/25 06:39:45;;;;;;;10.77;9.98;;;;;;;;;;4995484;28;20380;-55
2023/03/25 06:42:10;;;;;;;9.90;9.30;;;;;;;;;;4996433;28;20120;-48
2023/03/25 06:44:36;;;;;;;10.57;9.98;;;;;;;;;;4997027;28;20555;-49
2023/03/25 06:47:04;;;;;;;10.05;9.45;;;;;;;;;;4998664;28;20037;-49
2023/03/25 06:49:29;;;;;;;12.00;11.30;;;;;;;;;;4998623;28;20318;-48
2023/03/25 06:51:55;;;;;;;10.13;9.52;;;;;;;;;;4994592;28;20030;-50
2023/03/25 06:54:21;;;;;;;10.13;9.52;;;;;;;;;;5002315;28;20029;-48
2023/03/25 06:56:47;;;;;;;9.75;9.15;;;;;;;;;;4996642;28;20073;-49
2023/03/25 06:59:12;;;;;;;11.20;10.50;;;;;;;;;;4992101;28;20117;-49
2023/03/25 07:01:37;;;;;;;11.68;10.98;;;;;;;;;;4994600;28;20128;-47
2023/03/25 07:04:03;;;;;;;11.15;10.45;;;;;;;;;;4994515;28;20459;-48
2023/03/25 07:06:30;;;;;;;11.80;11.10;;;;;;;;;;4993338;28;20037;-58
2023/03/25 07:08:55;;;;;;;12.15;11.45;;;;;;;;;;4995467;28;20113;-59
2023/03/25 07:11:25;;;;;;;11.65;10.95;;;;;;;;;;4996919;28;20113;-49
2023/03/25 07:13:52;;;;;;;11.30;10.60;;;;;;;;;;4998525;28;20029;-47
2023/03/25 07:16:19;;;;;;;10.98;10.27;;;;;;;;;;4999925;28;20452;-49
2023/03/25 07:18:45;;;;;;;11.07;10.38;;;;;;;;;;4996346;28;20494;-51
2023/03/25 07:21:10;;;;;;;12.07;11.27;;;;;;;;;;4996636;28;20045;-49
2023/03/25 07:23:36;;;;;;;11.00;10.32;;;;;;;;;;4995731;28;20042;-55
2023/03/25 07:26:01;;;;;;;9.95;9.35;;;;;;;;;;4997757;28;20053;-56
2023/03/25 07:28:27;;;;;;;11.57;10.65;;;;;;;;;;4995800;28;20135;-51
2023/03/25 07:30:52;;;;;;;10.32;9.73;;;;;;;;;;4994609;28;20030;-56
2023/03/25 07:33:17;;;;;;;10.15;9.55;;;;;;;;;;4995391;28;20034;-54
2023/03/25 07:35:43;;;;;;;10.07;9.48;;;;;;;;;;4994700;28;20029;-51
2023/03/25 07:38:08;;;;;;;10.48;9.82;;;;;;;;;;4993108;28;20029;-48
2023/03/25 07:40:34;;;;;;;10.20;9.57;;;;;;;;;;4993165;28;20367;-57
2023/03/25 07:43:00;;;;;;;10.13;9.52;;;;;;;;;;4995449;28;20030;-56
2023/03/25 07:45:25;;;;;;;9.70;9.10;;;;;;;;;;4992886;28;20038;-55
2023/03/25 07:47:52;;;;;;;17.17;10.75;;;;;;;;;;4993436;28;20192;-55
2023/03/25 07:50:18;;;;;;;9.27;8.68;;;;;;;;;;4992090;28;20065;-48
2023/03/25 07:52:43;;;;;;;10.75;9.95;;;;;;;;;;4991977;28;20029;-50
2023/03/25 07:55:09;;;;;;;12.32;11.43;;;;;;;;;;4993605;28;20033;-51
2023/03/25 07:57:34;;;;;;;11.40;10.70;;;;;;;;;;4995219;28;20034;-52
2023/03/25 08:00:00;;;;;;;12.40;11.57;;;;;;;;;;4996468;28;20031;-52
2023/03/25 08:02:25;;;;;;;11.70;10.85;;;;;;;;;;4998546;28;20041;-49
2023/03/25 08:04:53;;;;;;;11.25;10.55;;;;;;;;;;4993494;28;20038;-51
2023/03/25 08:07:20;;;;;;;11.38;10.68;;;;;;;;;;4997190;28;20026;-52
2023/03/25 08:09:45;;;;;;;12.55;11.63;;;;;;;;;;4993092;28;20053;-48
2023/03/25 08:12:10;;;;;;;11.65;10.85;;;;;;;;;;4994403;28;20045;-52
2023/03/25 08:14:36;;;;;;;11.85;10.85;;;;;;;;;;4995917;28;20081;-56
2023/03/25 08:17:04;;;;;;;11.25;10.55;;;;;;;;;;4992189;28;21044;-52
2023/03/25 08:19:29;;;;;;;11.15;10.35;;;;;;;;;;4992976;28;20079;-47
2023/03/25 08:21:54;;;;;;;10.40;9.80;;;;;;;;;;4994134;28;20034;-56
2023/03/25 08:24:20;;;;;;;10.70;10.00;;;;;;;;;;4994930;28;20026;-50
2023/03/25 08:26:45;;;;;;;11.07;10.38;;;;;;;;;;4991562;28;20026;-58
2023/03/25 08:29:11;;;;;;;12.18;11.48;;;;;;;;;;4994632;28;20408;-49
2023/03/25 08:31:37;;;;;;;12.15;11.45;;;;;;;;;;4996040;28;20029;-49
2023/03/25 08:34:04;;;;;;;12.40;11.50;;;;;;;;;;4992806;28;20070;-57
2023/03/25 08:36:30;;;;;;;11.90;11.20;;;;;;;;;;4995497;28;20120;-58
2023/03/25 08:38:55;;;;;;;12.18;11.30;;;;;;;;;;4992516;28;20041;-51
2023/03/25 08:41:21;;;;;;;11.30;10.60;;;;;;;;;;4989904;28;20049;-51
2023/03/25 08:43:46;;;;;;;12.43;11.52;;;;;;;;;;4992205;28;20066;-51
2023/03/25 08:46:12;;;;;;;10.80;10.10;;;;;;;;;;4992375;28;20030;-51
2023/03/25 08:48:38;;;;;;;12.82;11.93;;;;;;;;;;4996695;28;20069;-51
2023/03/25 08:51:05;;;;;;;12.75;11.70;;;;;;;;;;4995152;28;20053;-51
2023/03/25 08:53:31;;;;;;;11.95;11.25;;;;;;;;;;4994124;28;20708;-52
2023/03/25 08:55:57;;;;;;;11.77;11.07;;;;;;;;;;4994263;28;20046;-52
2023/03/25 08:58:24;;;;;;;10.95;10.27;;;;;;;;;;4994093;28;20172;-52
2023/03/25 09:00:53;;;;;;;13.27;12.20;;;;;;;;;;4995032;28;20033;-52
2023/03/25 09:03:20;;;;;;;11.50;10.75;;;;;;;;;;4997554;28;20038;-49
2023/03/25 09:05:46;;;;;;;11.55;10.85;;;;;;;;;;5008625;28;20103;-52
2023/03/25 09:08:11;;;;;;;11.15;10.45;;;;;;;;;;4993648;28;20030;-57
2023/03/25 09:10:37;;;;;;;10.80;10.15;;;;;;;;;;4992742;28;20026;-53
2023/03/25 09:13:02;;;;;;;11.80;11.10;;;;;;;;;;4992997;28;20037;-59
2023/03/25 09:15:28;;;;;;;10.73;9.88;;;;;;;;;;4992280;28;20030;-57
2023/03/25 09:17:53;;;;;;;11.00;10.30;;;;;;;;;;4989346;28;20053;-53
2023/03/25 09:20:19;;;;;;;10.70;10.10;;;;;;;;;;4991139;28;20117;-58
2023/03/25 09:22:44;;;;;;;11.07;10.38;;;;;;;;;;4993908;28;20068;-58
2023/03/25 09:25:10;;;;;;;10.13;9.52;;;;;;;;;;4995545;28;20407;-58
2023/03/25 09:27:36;;;;;;;10.90;10.23;;;;;;;;;;4996686;28;20041;-58
2023/03/25 09:30:05;;;;;;;12.48;11.57;;;;;;;;;;4994236;28;20045;-52
2023/03/25 09:32:31;;;;;;;10.68;9.93;;;;;;;;;;4993223;28;21029;-50
2023/03/25 09:34:56;;;;;;;10.65;9.95;;;;;;;;;;4989146;28;20062;-52
2023/03/25 09:37:22;;;;;;;11.25;10.48;;;;;;;;;;4990980;28;20373;-49
2023/03/25 09:39:47;;;;;;;10.60;9.90;;;;;;;;;;4994483;28;20034;-58
2023/03/25 09:42:31;;;;;;;11.95;10.27;;;;;;;;;;4991910;28;20061;-58
2023/03/25 09:45:16;;;;;;;11.73;10.90;;;;;;;;;;4990807;28;20754;-50
2023/03/25 09:47:57;;;;;;;10.63;10.02;;;;;;;;;;4994505;28;20046;-52
2023/03/25 09:50:24;;;;;;;11.15;10.45;;;;;;;;;;4993750;28;20447;-58
2023/03/25 09:52:59;;;;;;;10.73;10.10;;;;;;;;;;4991327;28;20504;-58
2023/03/25 09:55:33;;;;;;;10.50;9.90;;;;;;;;;;4992943;28;20053;-58
2023/03/25 09:58:18;;;;;;;12.15;11.32;;;;;;;;;;4992163;28;20053;-57
2023/03/25 10:00:46;;;;;;;11.13;10.43;;;;;;;;;;4995087;28;20038;-58
2023/03/25 10:03:19;;;;;;;10.30;9.70;;;;;;;;;;4992204;28;20030;-58
2023/03/25 10:05:49;;;;;;;10.25;9.65;;;;;;;;;;4992284;28;20042;-50
2023/03/25 10:08:40;;;;;;;10.27;9.68;;;;;;;;;;4994268;28;20038;-49
2023/03/25 10:11:17;;;;;;;11.77;11.07;;;;;;;;;;4994542;28;20022;-46
2023/03/25 10:13:58;;;;;;;11.00;10.30;;;;;;;;;;4994258;28;20284;-51
2023/03/25 10:16:26;;;;;;;10.52;9.73;;;;;;;;;;4995602;28;20049;-51
2023/03/25 10:19:01;;;;;;;10.32;9.73;;;;;;;;;;5010950;28;20037;-50
2023/03/25 10:22:08;;;;;;;9.50;8.90;;;;;;;;;;4994019;28;20563;-52
2023/03/25 10:24:47;;;;;;;10.05;9.45;;;;;;;;;;4996762;28;20431;-50
2023/03/25 10:27:38;;;;;;;9.77;9.18;;;;;;;;;;5000689;28;20030;-48
2023/03/25 10:30:40;;;;;;;11.02;10.32;;;;;;;;;;4995908;28;20103;-47
2023/03/25 10:33:27;;;;;;;9.38;8.77;;;;;;;;;;4995783;28;20044;-51
2023/03/25 10:35:55;;;;;;;10.95;10.20;;;;;;;;;;4995010;28;20041;-55
2023/03/25 10:38:23;;;;;;;10.52;9.88;;;;;;;;;;4997446;28;20380;-50
2023/03/25 10:40:51;;;;;;;11.05;10.35;;;;;;;;;;4993653;28;20033;-56
2023/03/25 10:43:26;;;;;;;10.60;9.93;;;;;;;;;;4996185;28;20080;-47
2023/03/25 10:45:56;;;;;;;10.30;9.70;;;;;;;;;;4999822;28;20037;-57
2023/03/25 10:48:28;;;;;;;11.82;11.13;;;;;;;;;;4996888;28;20045;-56
2023/03/25 10:50:58;;;;;;;;;;;;;;;;;;4994317;28;20113;-56
2023/03/25 10:53:25;;;;;;;12.32;11.63;;;;;;;;;;4995353;28;19964;-56
2023/03/25 10:56:16;;;;;;;11.02;10.35;;;;;;;;;;4995800;28;20030;-56
2023/03/25 10:58:44;;;;;;;10.43;9.82;;;;;;;;;;4996785;28;20042;-55
2023/03/25 11:01:12;;;;;;;10.25;9.65;;;;;;;;;;4994404;28;20069;-57
2023/03/25 11:03:40;;;;;;;10.63;10.02;;;;;;;;;;4996065;28;20048;-58
2023/03/25 11:06:06;;;;;;;11.15;10.25;;;;;;;;;;4999586;28;20048;-57
2023/03/25 11:08:32;;;;;;;9.82;9.23;;;;;;;;;;4993148;28;20466;-57
2023/03/25 11:10:59;;;;;;;10.20;9.60;;;;;;;;;;4994603;28;20030;-47
2023/03/25 11:13:29;;;;;;;10.95;10.25;;;;;;;;;;4992490;28;20475;-58
2023/03/25 11:15:58;;;;;;;11.60;10.90;;;;;;;;;;4995574;28;20042;-57
2023/03/25 11:18:50;;;;;;;11.75;11.05;;;;;;;;;;4994000;28;20030;-58
2023/03/25 11:21:17;;;;;;;10.55;9.95;;;;;;;;;;4994126;28;20049;-57
2023/03/25 11:23:48;;;;;;;11.15;10.45;;;;;;;;;;4994461;28;20038;-57
2023/03/25 11:26:18;;;;;;;;;;;;;;;;;;4994343;28;20104;-49
2023/03/25 11:28:54;;;;;;;10.93;10.27;;;;;;;;;;4993550;28;19924;-51
2023/03/25 11:31:26;;;;;;;10.85;10.15;;;;;;;;;;5012118;28;20061;-49
2023/03/25 11:34:09;;;;;;;17.30;15.93;;;;;;;;;;4997836;28;20033;-49
2023/03/25 11:36:45;;;;;;;16.88;15.90;;;;;;;;;;4993116;28;20131;-57
2023/03/25 11:39:22;;;;;;;19.33;18.23;;;;;;;;;;4996722;28;20077;-53
2023/03/25 11:41:48;;;;;;;16.15;15.25;;;;;;;;;;4995881;28;20034;-50
2023/03/25 11:44:29;;;;;;;15.90;14.90;;;;;;;;;;4998525;28;20049;-50
2023/03/25 11:47:05;;;;;;;17.73;16.70;;;;;;;;;;4997774;28;20153;-52
2023/03/25 11:49:35;;;;;;;16.40;15.50;;;;;;;;;;4994333;28;20045;-49
2023/03/25 11:52:12;;;;;;;13.57;12.77;;;;;;;;;;4996677;28;20120;-50
2023/03/25 11:54:39;;;;;;;15.23;14.35;;;;;;;;;;4996821;28;20639;-52
2023/03/25 11:57:11;;;;;;;15.82;14.93;;;;;;;;;;4994986;28;20393;-49
2023/03/25 11:59:42;;;;;;;16.17;15.23;;;;;;;;;;4992538;28;20040;-49
2023/03/25 12:02:24;;;;;;;18.23;17.13;;;;;;;;;;4994848;28;20038;-50
2023/03/25 12:05:02;;;;;;;16.67;15.68;;;;;;;;;;4992492;28;20116;-51
2023/03/25 12:07:28;;;;;;;16.63;15.73;;;;;;;;;;4995242;28;20038;-49
2023/03/25 12:10:02;;;;;;;17.55;16.55;;;;;;;;;;4993922;28;20042;-48
2023/03/25 12:12:40;;;;;;;16.75;15.75;;;;;;;;;;4993855;28;20468;-54
2023/03/25 12:15:21;;;;;;;15.25;14.38;;;;;;;;;;4992830;28;20644;-52
2023/03/25 12:18:20;;;;;;;14.50;13.60;;;;;;;;;;4993627;28;20085;-49
2023/03/25 12:20:55;;;;;;;13.00;12.25;;;;;;;;;;4998886;28;20041;-48
2023/03/25 12:23:53;;;;;;;12.55;11.75;;;;;;;;;;4993854;28;20037;-49
2023/03/25 12:26:37;;;;;;;12.85;12.02;;;;;;;;;;4992081;28;20400;-49
2023/03/25 12:29:36;;;;;;;13.57;12.77;;;;;;;;;;4992292;28;20042;-51
2023/03/25 12:32:23;;;;;;;12.27;11.57;;;;;;;;;;4996562;28;20033;-53
2023/03/25 12:35:24;;;;;;;12.98;12.20;;;;;;;;;;4992079;28;20049;-54
2023/03/25 12:38:15;;;;;;;13.50;12.70;;;;;;;;;;4994416;28;20483;-51
2023/03/25 12:41:03;;;;;;;13.00;12.20;;;;;;;;;;4990550;28;20133;-48
2023/03/25 12:43:54;;;;;;;15.65;13.38;;;;;;;;;;4997358;28;20133;-53
2023/03/25 12:46:25;;;;;;;;;;;;;;;;;;4995639;28;20033;-50
2023/03/25 12:48:57;;;;;;;13.70;12.90;;;;;;;;;;4994842;28;19929;-51
2023/03/25 12:51:41;;;;;;;12.63;11.93;;;;;;;;;;4994788;28;20062;-53
2023/03/25 12:54:15;;;;;;;12.75;11.95;;;;;;;;;;4995212;28;20044;-50
2023/03/25 12:56:54;;;;;;;14.45;13.45;;;;;;;;;;4994248;28;20116;-53
2023/03/25 12:59:31;;;;;;;13.32;12.52;;;;;;;;;;4993123;28;20259;-52
2023/03/25 13:02:17;;;;;;;17.10;16.20;;;;;;;;;;4993740;28;20040;-50
2023/03/25 13:04:57;;;;;;;13.82;12.93;;;;;;;;;;4993670;28;20038;-52
2023/03/25 13:07:33;;;;;;;12.00;11.30;;;;;;;;;;4995551;28;20049;-50
2023/03/25 13:10:14;;;;;;;12.02;11.32;;;;;;;;;;4994455;28;20050;-52
2023/03/25 13:12:54;;;;;;;11.30;10.30;;;;;;;;;;4996279;28;20034;-51
2023/03/25 13:15:42;;;;;;;11.13;10.20;;;;;;;;;;4994107;28;20100;-50
2023/03/25 13:18:15;;;;;;;10.70;10.10;;;;;;;;;;4993997;28;20041;-52
2023/03/25 13:20:48;;;;;;;9.70;9.10;;;;;;;;;;4993623;28;20038;-49
2023/03/25 13:23:20;;;;;;;9.75;9.15;;;;;;;;;;4993604;28;20087;-53
2023/03/25 13:26:17;;;;;;;9.95;9.35;;;;;;;;;;4993604;28;20041;-50
2023/03/25 13:28:49;;;;;;;11.35;10.65;;;;;;;;;;4996763;28;20065;-51
2023/03/25 13:31:21;;;;;;;10.52;9.93;;;;;;;;;;4995319;28;20073;-49
2023/03/25 13:33:53;;;;;;;12.40;11.70;;;;;;;;;;4994446;28;20451;-54
2023/03/25 13:36:29;;;;;;;13.40;12.60;;;;;;;;;;4993639;28;20038;-50
2023/03/25 13:38:58;;;;;;;15.70;14.80;;;;;;;;;;4994429;28;20097;-52
2023/03/25 13:41:41;;;;;;;17.40;16.38;;;;;;;;;;4995063;28;20027;-50
2023/03/25 13:44:20;;;;;;;12.90;12.18;;;;;;;;;;4996534;28;20025;-49
2023/03/25 13:46:52;;;;;;;16.30;15.40;;;;;;;;;;4996584;28;20033;-53
2023/03/25 13:49:24;;;;;;;16.13;15.15;;;;;;;;;;4995334;28;20034;-48
2023/03/25 13:51:50;;;;;;;12.57;11.88;;;;;;;;;;4994331;28;20102;-50
2023/03/25 13:54:22;;;;;;;12.02;11.32;;;;;;;;;;4994525;28;20034;-48
2023/03/25 13:57:17;;;;;;;12.68;11.98;;;;;;;;;;4994415;28;20038;-52
2023/03/25 14:00:19;;;;;;;13.20;12.40;;;;;;;;;;4979427;28;20488;-54
2023/03/25 14:03:03;;;;;;;13.05;12.30;;;;;;;;;;4995931;28;20045;-51
2023/03/25 14:06:19;;;;;;;13.02;12.25;;;;;;;;;;4996319;28;20046;-48
2023/03/25 14:09:12;;;;;;;12.27;11.57;;;;;;;;;;4994315;28;20407;-61
2023/03/25 14:11:44;;;;;;;13.18;12.38;;;;;;;;;;4994018;28;20038;-60
2023/03/25 14:14:19;;;;;;;14.35;13.45;;;;;;;;;;4993532;28;20101;-61
2023/03/25 14:16:49;;;;;;;11.65;10.95;;;;;;;;;;4996617;28;20050;-52
2023/03/25 14:19:32;;;;;;;11.55;10.85;;;;;;;;;;4996079;28;20419;-58
2023/03/25 14:21:57;;;;;;;13.57;12.68;;;;;;;;;;4991458;28;20034;-60
2023/03/25 14:24:35;;;;;;;13.05;11.70;;;;;;;;;;4992382;28;20037;-58
2023/03/25 14:27:04;;;;;;;12.00;11.30;;;;;;;;;;4996099;28;20053;-57
2023/03/25 14:29:54;;;;;;;12.23;11.52;;;;;;;;;;4994269;28;20901;-55
2023/03/25 14:32:19;;;;;;;12.50;11.80;;;;;;;;;;4994596;28;20057;-55
2023/03/25 14:34:48;;;;;;;12.52;11.82;;;;;;;;;;4992040;28;20038;-51
2023/03/25 14:37:32;;;;;;;12.18;11.48;;;;;;;;;;4997027;28;20038;-49
2023/03/25 14:40:01;;;;;;;12.30;11.60;;;;;;;;;;4995628;28;20045;-57
2023/03/25 14:42:40;;;;;;;11.60;10.90;;;;;;;;;;4995458;28;20066;-56
2023/03/25 14:45:31;;;;;;;13.73;12.93;;;;;;;;;;4994569;28;20037;-55
2023/03/25 14:47:57;;;;;;;12.50;11.80;;;;;;;;;;4984167;28;20061;-55
2023/03/25 14:50:22;;;;;;;13.80;13.00;;;;;;;;;;4993573;28;20615;-59
2023/03/25 14:52:51;;;;;;;13.30;12.50;;;;;;;;;;4998351;28;20034;-48
2023/03/25 14:55:19;;;;;;;14.38;13.57;;;;;;;;;;4994627;28;20033;-51